sensor_id;sensor_type;location;lat;lon;timestamp;temperature;humidity
13198;DHT22;6664;52.514;13.440;2023-09-08T00:02:15;16.60;44.30
13198;DHT22;6664;52.514;13.440;2023-09-08T00:05:02;16.60;44.70
13198;DHT22;6664;52.514;13.440;2023-09-08T00:07:50;16.50;45.90
13198;DHT22;6664;52.514;13.440;2023-09-08T00:10:35;16.50;46.00
13198;DHT22;6664;52.514;13.440;2023-09-08T00:13:23;16.40;46.90
13198;DHT22;6664;52.514;13.440;2023-09-08T00:16:11;16.60;47.10
13198;DHT22;6664;52.514;13.440;2023-09-08T00:18:58;16.40;47.00
13198;DHT22;6664;52.514;13.440;2023-09-08T00:21:43;16.40;48.10
13198;DHT22;6664;52.514;13.440;2023-09-08T00:24:29;16.30;48.60
13198;DHT22;6664;52.514;13.440;2023-09-08T00:27:15;16.30;49.40
13198;DHT22;6664;52.514;13.440;2023-09-08T00:30:01;16.30;49.20
13198;DHT22;6664;52.514;13.440;2023-09-08T00:32:49;16.20;49.80
13198;DHT22;6664;52.514;13.440;2023-09-08T00:35:37;16.20;50.60
13198;DHT22;6664;52.514;13.440;2023-09-08T00:38:27;16.10;50.60
13198;DHT22;6664;52.514;13.440;2023-09-08T00:41:14;16.10;51.40
13198;DHT22;6664;52.514;13.440;2023-09-08T00:44:00;16.10;51.50
13198;DHT22;6664;52.514;13.440;2023-09-08T00:46:48;16.20;51.60
13198;DHT22;6664;52.514;13.440;2023-09-08T00:49:34;16.10;51.50
13198;DHT22;6664;52.514;13.440;2023-09-08T00:52:19;16.10;51.40
13198;DHT22;6664;52.514;13.440;2023-09-08T00:55:07;16.00;51.80
13198;DHT22;6664;52.514;13.440;2023-09-08T00:57:53;16.10;51.90
13198;DHT22;6664;52.514;13.440;2023-09-08T01:00:39;16.00;52.20
13198;DHT22;6664;52.514;13.440;2023-09-08T01:03:25;15.90;52.70
13198;DHT22;6664;52.514;13.440;2023-09-08T01:06:13;15.90;53.30
13198;DHT22;6664;52.514;13.440;2023-09-08T01:09:02;15.90;53.70
13198;DHT22;6664;52.514;13.440;2023-09-08T01:11:48;15.90;54.00
13198;DHT22;6664;52.514;13.440;2023-09-08T01:14:36;15.80;54.40
13198;DHT22;6664;52.514;13.440;2023-09-08T01:17:22;15.90;54.40
13198;DHT22;6664;52.514;13.440;2023-09-08T01:20:15;15.80;54.90
13198;DHT22;6664;52.514;13.440;2023-09-08T01:23:21;15.90;54.80
13198;DHT22;6664;52.514;13.440;2023-09-08T01:26:16;15.80;55.50
13198;DHT22;6664;52.514;13.440;2023-09-08T01:29:05;15.70;55.90
13198;DHT22;6664;52.514;13.440;2023-09-08T01:31:54;15.70;56.10
13198;DHT22;6664;52.514;13.440;2023-09-08T01:34:40;15.70;56.60
13198;DHT22;6664;52.514;13.440;2023-09-08T01:37:26;15.70;56.70
13198;DHT22;6664;52.514;13.440;2023-09-08T01:40:12;15.70;56.70
13198;DHT22;6664;52.514;13.440;2023-09-08T01:43:00;15.70;56.70
13198;DHT22;6664;52.514;13.440;2023-09-08T01:45:46;15.60;57.20
13198;DHT22;6664;52.514;13.440;2023-09-08T01:48:34;15.70;57.80
13198;DHT22;6664;52.514;13.440;2023-09-08T01:51:20;15.70;57.50
13198;DHT22;6664;52.514;13.440;2023-09-08T01:54:06;15.60;57.50
13198;DHT22;6664;52.514;13.440;2023-09-08T01:56:52;15.70;57.40
13198;DHT22;6664;52.514;13.440;2023-09-08T01:59:38;15.60;58.40
13198;DHT22;6664;52.514;13.440;2023-09-08T02:02:23;15.80;57.50
13198;DHT22;6664;52.514;13.440;2023-09-08T02:05:09;15.90;56.90
13198;DHT22;6664;52.514;13.440;2023-09-08T02:07:54;16.00;55.00
13198;DHT22;6664;52.514;13.440;2023-09-08T02:10:42;16.00;54.70
13198;DHT22;6664;52.514;13.440;2023-09-08T02:13:27;15.90;54.40
13198;DHT22;6664;52.514;13.440;2023-09-08T02:16:16;16.00;54.40
13198;DHT22;6664;52.514;13.440;2023-09-08T02:19:01;16.00;54.10
13198;DHT22;6664;52.514;13.440;2023-09-08T02:21:47;16.00;54.20
13198;DHT22;6664;52.514;13.440;2023-09-08T02:24:33;16.10;53.40
13198;DHT22;6664;52.514;13.440;2023-09-08T02:27:19;16.10;53.10
13198;DHT22;6664;52.514;13.440;2023-09-08T02:30:05;16.00;53.30
13198;DHT22;6664;52.514;13.440;2023-09-08T02:32:52;16.10;52.80
13198;DHT22;6664;52.514;13.440;2023-09-08T02:35:41;16.10;52.70
13198;DHT22;6664;52.514;13.440;2023-09-08T02:38:27;16.20;52.50
13198;DHT22;6664;52.514;13.440;2023-09-08T02:41:12;16.10;52.10
13198;DHT22;6664;52.514;13.440;2023-09-08T02:43:58;16.30;51.30
13198;DHT22;6664;52.514;13.440;2023-09-08T02:46:43;16.30;51.40
13198;DHT22;6664;52.514;13.440;2023-09-08T02:49:29;16.20;51.50
13198;DHT22;6664;52.514;13.440;2023-09-08T02:52:15;16.30;51.30
13198;DHT22;6664;52.514;13.440;2023-09-08T02:55:01;16.30;50.30
13198;DHT22;6664;52.514;13.440;2023-09-08T02:57:46;16.30;51.00
13198;DHT22;6664;52.514;13.440;2023-09-08T03:00:32;16.20;51.10
13198;DHT22;6664;52.514;13.440;2023-09-08T03:03:19;16.10;51.80
13198;DHT22;6664;52.514;13.440;2023-09-08T03:06:05;16.10;51.90
13198;DHT22;6664;52.514;13.440;2023-09-08T03:08:53;16.10;51.90
13198;DHT22;6664;52.514;13.440;2023-09-08T03:11:38;16.10;51.90
13198;DHT22;6664;52.514;13.440;2023-09-08T03:14:24;16.10;52.00
13198;DHT22;6664;52.514;13.440;2023-09-08T03:17:11;16.10;51.90
13198;DHT22;6664;52.514;13.440;2023-09-08T03:19:58;16.00;52.10
13198;DHT22;6664;52.514;13.440;2023-09-08T03:22:43;15.90;52.70
13198;DHT22;6664;52.514;13.440;2023-09-08T03:25:29;15.90;52.90
13198;DHT22;6664;52.514;13.440;2023-09-08T03:28:15;16.10;52.50
13198;DHT22;6664;52.514;13.440;2023-09-08T03:31:01;16.00;52.10
13198;DHT22;6664;52.514;13.440;2023-09-08T03:33:47;16.00;52.70
13198;DHT22;6664;52.514;13.440;2023-09-08T03:36:33;15.80;53.00
13198;DHT22;6664;52.514;13.440;2023-09-08T03:39:21;15.90;53.80
13198;DHT22;6664;52.514;13.440;2023-09-08T03:42:09;15.90;53.10
13198;DHT22;6664;52.514;13.440;2023-09-08T03:44:56;16.00;52.90
13198;DHT22;6664;52.514;13.440;2023-09-08T03:47:42;15.90;53.10
13198;DHT22;6664;52.514;13.440;2023-09-08T03:50:30;15.90;53.30
13198;DHT22;6664;52.514;13.440;2023-09-08T03:53:15;15.80;53.50
13198;DHT22;6664;52.514;13.440;2023-09-08T03:56:01;15.90;53.40
13198;DHT22;6664;52.514;13.440;2023-09-08T03:58:47;15.80;54.00
13198;DHT22;6664;52.514;13.440;2023-09-08T04:01:33;15.80;53.50
13198;DHT22;6664;52.514;13.440;2023-09-08T04:04:19;15.90;53.70
13198;DHT22;6664;52.514;13.440;2023-09-08T04:07:05;15.70;54.60
13198;DHT22;6664;52.514;13.440;2023-09-08T04:09:51;15.60;55.60
13198;DHT22;6664;52.514;13.440;2023-09-08T04:12:39;15.60;56.20
13198;DHT22;6664;52.514;13.440;2023-09-08T04:15:25;15.50;56.00
13198;DHT22;6664;52.514;13.440;2023-09-08T04:18:10;15.50;56.60
13198;DHT22;6664;52.514;13.440;2023-09-08T04:21:00;15.40;57.40
13198;DHT22;6664;52.514;13.440;2023-09-08T04:23:48;15.40;58.00
13198;DHT22;6664;52.514;13.440;2023-09-08T04:26:34;15.30;58.60
13198;DHT22;6664;52.514;13.440;2023-09-08T04:29:19;15.30;58.60
13198;DHT22;6664;52.514;13.440;2023-09-08T04:32:08;15.20;59.40
13198;DHT22;6664;52.514;13.440;2023-09-08T04:34:56;15.20;59.70
13198;DHT22;6664;52.514;13.440;2023-09-08T04:37:45;15.20;60.00
13198;DHT22;6664;52.514;13.440;2023-09-08T04:40:30;15.20;60.80
13198;DHT22;6664;52.514;13.440;2023-09-08T04:43:16;15.20;60.70
13198;DHT22;6664;52.514;13.440;2023-09-08T04:46:02;15.20;61.30
13198;DHT22;6664;52.514;13.440;2023-09-08T04:48:50;15.30;61.10
13198;DHT22;6664;52.514;13.440;2023-09-08T04:51:35;15.20;61.00
13198;DHT22;6664;52.514;13.440;2023-09-08T04:54:21;15.20;61.50
13198;DHT22;6664;52.514;13.440;2023-09-08T04:57:07;15.20;61.50
13198;DHT22;6664;52.514;13.440;2023-09-08T05:00:07;15.10;62.20
13198;DHT22;6664;52.514;13.440;2023-09-08T05:02:53;15.20;62.40
13198;DHT22;6664;52.514;13.440;2023-09-08T05:05:39;15.20;62.60
13198;DHT22;6664;52.514;13.440;2023-09-08T05:08:27;15.20;62.50
13198;DHT22;6664;52.514;13.440;2023-09-08T05:11:15;15.20;63.00
13198;DHT22;6664;52.514;13.440;2023-09-08T05:14:02;15.30;62.80
13198;DHT22;6664;52.514;13.440;2023-09-08T05:16:48;15.30;62.00
13198;DHT22;6664;52.514;13.440;2023-09-08T05:19:41;15.40;62.00
13198;DHT22;6664;52.514;13.440;2023-09-08T05:22:28;15.50;61.50
13198;DHT22;6664;52.514;13.440;2023-09-08T05:25:18;15.50;60.60
13198;DHT22;6664;52.514;13.440;2023-09-08T05:28:03;15.50;60.00
13198;DHT22;6664;52.514;13.440;2023-09-08T05:30:53;15.50;60.00
13198;DHT22;6664;52.514;13.440;2023-09-08T05:33:39;15.70;58.40
13198;DHT22;6664;52.514;13.440;2023-09-08T05:36:25;15.80;56.80
13198;DHT22;6664;52.514;13.440;2023-09-08T05:39:10;15.80;56.80
13198;DHT22;6664;52.514;13.440;2023-09-08T05:41:58;15.90;56.70
13198;DHT22;6664;52.514;13.440;2023-09-08T05:44:44;16.00;56.10
13198;DHT22;6664;52.514;13.440;2023-09-08T05:47:31;16.00;55.30
13198;DHT22;6664;52.514;13.440;2023-09-08T05:50:21;16.10;54.40
13198;DHT22;6664;52.514;13.440;2023-09-08T05:53:06;16.20;53.30
13198;DHT22;6664;52.514;13.440;2023-09-08T05:55:52;16.20;53.40
13198;DHT22;6664;52.514;13.440;2023-09-08T05:58:40;16.20;53.80
13198;DHT22;6664;52.514;13.440;2023-09-08T06:01:25;16.20;53.30
13198;DHT22;6664;52.514;13.440;2023-09-08T06:04:10;16.20;53.40
13198;DHT22;6664;52.514;13.440;2023-09-08T06:06:56;16.20;53.40
13198;DHT22;6664;52.514;13.440;2023-09-08T06:09:41;16.20;53.50
13198;DHT22;6664;52.514;13.440;2023-09-08T06:12:27;16.20;53.80
13198;DHT22;6664;52.514;13.440;2023-09-08T06:15:12;16.30;54.40
13198;DHT22;6664;52.514;13.440;2023-09-08T06:17:58;16.20;54.00
13198;DHT22;6664;52.514;13.440;2023-09-08T06:20:47;16.30;54.40
13198;DHT22;6664;52.514;13.440;2023-09-08T06:23:34;16.30;54.50
13198;DHT22;6664;52.514;13.440;2023-09-08T06:26:24;16.40;53.90
13198;DHT22;6664;52.514;13.440;2023-09-08T06:29:10;16.50;53.90
13198;DHT22;6664;52.514;13.440;2023-09-08T06:31:56;16.50;53.30
13198;DHT22;6664;52.514;13.440;2023-09-08T06:34:44;16.60;52.40
13198;DHT22;6664;52.514;13.440;2023-09-08T06:37:35;16.60;52.40
13198;DHT22;6664;52.514;13.440;2023-09-08T06:40:21;16.60;52.30
13198;DHT22;6664;52.514;13.440;2023-09-08T06:43:09;16.70;52.20
13198;DHT22;6664;52.514;13.440;2023-09-08T06:45:55;16.80;51.80
13198;DHT22;6664;52.514;13.440;2023-09-08T06:48:40;16.80;50.90
13198;DHT22;6664;52.514;13.440;2023-09-08T06:51:26;16.90;50.90
13198;DHT22;6664;52.514;13.440;2023-09-08T06:54:11;17.00;50.40
13198;DHT22;6664;52.514;13.440;2023-09-08T06:56:59;17.00;50.20
13198;DHT22;6664;52.514;13.440;2023-09-08T06:59:47;17.00;50.00
13198;DHT22;6664;52.514;13.440;2023-09-08T07:02:33;17.00;50.40
13198;DHT22;6664;52.514;13.440;2023-09-08T07:05:19;17.10;50.40
13198;DHT22;6664;52.514;13.440;2023-09-08T07:08:05;17.30;49.60
13198;DHT22;6664;52.514;13.440;2023-09-08T07:10:52;17.30;49.40
13198;DHT22;6664;52.514;13.440;2023-09-08T07:13:39;17.30;49.60
13198;DHT22;6664;52.514;13.440;2023-09-08T07:16:25;17.50;48.40
13198;DHT22;6664;52.514;13.440;2023-09-08T07:19:11;17.50;48.30
13198;DHT22;6664;52.514;13.440;2023-09-08T07:22:03;17.60;48.00
13198;DHT22;6664;52.514;13.440;2023-09-08T07:24:49;17.70;48.20
13198;DHT22;6664;52.514;13.440;2023-09-08T07:27:34;17.80;47.80
13198;DHT22;6664;52.514;13.440;2023-09-08T07:30:20;17.80;47.40
13198;DHT22;6664;52.514;13.440;2023-09-08T07:33:06;17.80;47.30
13198;DHT22;6664;52.514;13.440;2023-09-08T07:35:55;17.90;47.70
13198;DHT22;6664;52.514;13.440;2023-09-08T07:38:42;18.00;47.20
13198;DHT22;6664;52.514;13.440;2023-09-08T07:41:28;18.10;47.00
13198;DHT22;6664;52.514;13.440;2023-09-08T07:44:13;18.20;46.50
13198;DHT22;6664;52.514;13.440;2023-09-08T07:47:01;18.30;46.10
13198;DHT22;6664;52.514;13.440;2023-09-08T07:49:48;18.30;46.40
13198;DHT22;6664;52.514;13.440;2023-09-08T07:52:36;18.40;46.00
13198;DHT22;6664;52.514;13.440;2023-09-08T07:55:23;18.40;46.10
13198;DHT22;6664;52.514;13.440;2023-09-08T07:58:09;18.50;45.70
13198;DHT22;6664;52.514;13.440;2023-09-08T08:00:54;18.60;45.60
13198;DHT22;6664;52.514;13.440;2023-09-08T08:03:42;18.60;45.10
13198;DHT22;6664;52.514;13.440;2023-09-08T08:06:27;18.60;44.30
13198;DHT22;6664;52.514;13.440;2023-09-08T08:09:13;18.70;44.40
13198;DHT22;6664;52.514;13.440;2023-09-08T08:11:59;18.90;43.70
13198;DHT22;6664;52.514;13.440;2023-09-08T08:14:45;18.80;43.70
13198;DHT22;6664;52.514;13.440;2023-09-08T08:17:31;18.90;43.70
13198;DHT22;6664;52.514;13.440;2023-09-08T08:20:17;19.00;43.10
13198;DHT22;6664;52.514;13.440;2023-09-08T08:23:04;19.00;42.90
13198;DHT22;6664;52.514;13.440;2023-09-08T08:25:50;19.10;43.40
13198;DHT22;6664;52.514;13.440;2023-09-08T08:28:38;19.30;42.30
13198;DHT22;6664;52.514;13.440;2023-09-08T08:31:23;19.40;42.60
13198;DHT22;6664;52.514;13.440;2023-09-08T08:34:12;19.50;41.20
13198;DHT22;6664;52.514;13.440;2023-09-08T08:36:57;19.60;41.40
13198;DHT22;6664;52.514;13.440;2023-09-08T08:39:43;19.50;40.00
13198;DHT22;6664;52.514;13.440;2023-09-08T08:42:33;19.50;40.50
13198;DHT22;6664;52.514;13.440;2023-09-08T08:45:20;19.60;39.80
13198;DHT22;6664;52.514;13.440;2023-09-08T08:48:08;19.70;39.80
13198;DHT22;6664;52.514;13.440;2023-09-08T08:50:57;19.90;39.30
13198;DHT22;6664;52.514;13.440;2023-09-08T08:53:43;20.00;38.70
13198;DHT22;6664;52.514;13.440;2023-09-08T08:56:30;20.10;38.30
13198;DHT22;6664;52.514;13.440;2023-09-08T08:59:16;20.30;37.20
13198;DHT22;6664;52.514;13.440;2023-09-08T09:02:04;20.30;36.50
13198;DHT22;6664;52.514;13.440;2023-09-08T09:04:51;20.50;35.90
13198;DHT22;6664;52.514;13.440;2023-09-08T09:07:36;20.60;34.40
13198;DHT22;6664;52.514;13.440;2023-09-08T09:10:23;20.70;34.20
13198;DHT22;6664;52.514;13.440;2023-09-08T09:13:11;20.70;34.40
13198;DHT22;6664;52.514;13.440;2023-09-08T09:16:00;20.90;32.40
13198;DHT22;6664;52.514;13.440;2023-09-08T09:18:59;21.10;30.90
13198;DHT22;6664;52.514;13.440;2023-09-08T09:21:47;21.20;30.30
13198;DHT22;6664;52.514;13.440;2023-09-08T09:24:40;21.20;30.40
13198;DHT22;6664;52.514;13.440;2023-09-08T09:27:31;21.40;29.50
13198;DHT22;6664;52.514;13.440;2023-09-08T09:30:16;21.40;29.00
13198;DHT22;6664;52.514;13.440;2023-09-08T09:33:03;21.50;27.80
13198;DHT22;6664;52.514;13.440;2023-09-08T09:35:53;21.50;28.00
13198;DHT22;6664;52.514;13.440;2023-09-08T09:38:39;21.70;27.40
13198;DHT22;6664;52.514;13.440;2023-09-08T09:41:24;21.80;27.10
13198;DHT22;6664;52.514;13.440;2023-09-08T09:44:10;21.90;26.50
13198;DHT22;6664;52.514;13.440;2023-09-08T09:46:56;22.00;26.10
13198;DHT22;6664;52.514;13.440;2023-09-08T09:49:47;22.00;25.70
13198;DHT22;6664;52.514;13.440;2023-09-08T09:52:39;22.10;25.80
13198;DHT22;6664;52.514;13.440;2023-09-08T09:55:28;22.20;25.20
13198;DHT22;6664;52.514;13.440;2023-09-08T09:58:13;22.20;25.40
13198;DHT22;6664;52.514;13.440;2023-09-08T10:01:01;22.30;24.60
13198;DHT22;6664;52.514;13.440;2023-09-08T10:03:47;22.40;25.00
13198;DHT22;6664;52.514;13.440;2023-09-08T10:06:40;22.40;24.70
13198;DHT22;6664;52.514;13.440;2023-09-08T10:09:25;22.60;23.70
13198;DHT22;6664;52.514;13.440;2023-09-08T10:12:14;22.60;22.70
13198;DHT22;6664;52.514;13.440;2023-09-08T10:15:05;22.80;22.60
13198;DHT22;6664;52.514;13.440;2023-09-08T10:17:54;22.90;21.90
13198;DHT22;6664;52.514;13.440;2023-09-08T10:20:41;22.90;21.90
13198;DHT22;6664;52.514;13.440;2023-09-08T10:23:40;23.30;19.80
13198;DHT22;6664;52.514;13.440;2023-09-08T10:26:27;23.30;19.20
13198;DHT22;6664;52.514;13.440;2023-09-08T10:29:17;23.40;19.40
13198;DHT22;6664;52.514;13.440;2023-09-08T10:32:06;23.50;18.90
13198;DHT22;6664;52.514;13.440;2023-09-08T10:34:53;23.50;18.00
13198;DHT22;6664;52.514;13.440;2023-09-08T10:37:39;23.50;18.50
13198;DHT22;6664;52.514;13.440;2023-09-08T10:40:28;23.60;18.40
13198;DHT22;6664;52.514;13.440;2023-09-08T10:43:19;23.70;17.80
13198;DHT22;6664;52.514;13.440;2023-09-08T10:46:08;23.70;17.80
13198;DHT22;6664;52.514;13.440;2023-09-08T10:49:02;23.90;18.00
13198;DHT22;6664;52.514;13.440;2023-09-08T10:51:49;24.00;18.00
13198;DHT22;6664;52.514;13.440;2023-09-08T10:54:48;24.10;16.90
13198;DHT22;6664;52.514;13.440;2023-09-08T10:57:35;24.20;16.60
13198;DHT22;6664;52.514;13.440;2023-09-08T11:00:23;24.40;15.80
13198;DHT22;6664;52.514;13.440;2023-09-08T11:03:08;24.50;15.60
13198;DHT22;6664;52.514;13.440;2023-09-08T11:05:54;24.60;15.40
13198;DHT22;6664;52.514;13.440;2023-09-08T11:08:42;24.70;14.90
13198;DHT22;6664;52.514;13.440;2023-09-08T11:11:33;24.80;14.70
13198;DHT22;6664;52.514;13.440;2023-09-08T11:14:18;24.90;14.10
13198;DHT22;6664;52.514;13.440;2023-09-08T11:17:04;25.00;13.70
13198;DHT22;6664;52.514;13.440;2023-09-08T11:19:50;25.10;13.40
13198;DHT22;6664;52.514;13.440;2023-09-08T11:22:39;25.30;12.30
13198;DHT22;6664;52.514;13.440;2023-09-08T11:25:26;25.30;11.70
13198;DHT22;6664;52.514;13.440;2023-09-08T11:28:14;25.30;11.10
13198;DHT22;6664;52.514;13.440;2023-09-08T11:31:02;25.40;11.50
13198;DHT22;6664;52.514;13.440;2023-09-08T11:33:49;25.50;12.10
13198;DHT22;6664;52.514;13.440;2023-09-08T11:36:35;25.60;11.90
13198;DHT22;6664;52.514;13.440;2023-09-08T11:39:24;25.60;11.30
13198;DHT22;6664;52.514;13.440;2023-09-08T11:42:15;25.70;10.80
13198;DHT22;6664;52.514;13.440;2023-09-08T11:45:01;25.80;10.50
13198;DHT22;6664;52.514;13.440;2023-09-08T11:47:49;25.90;9.80
13198;DHT22;6664;52.514;13.440;2023-09-08T11:50:34;26.00;9.90
13198;DHT22;6664;52.514;13.440;2023-09-08T11:53:23;26.10;9.90
13198;DHT22;6664;52.514;13.440;2023-09-08T11:56:12;26.30;10.00
13198;DHT22;6664;52.514;13.440;2023-09-08T11:58:58;26.30;10.00
13198;DHT22;6664;52.514;13.440;2023-09-08T12:01:46;26.30;9.00
13198;DHT22;6664;52.514;13.440;2023-09-08T12:04:37;26.50;9.10
13198;DHT22;6664;52.514;13.440;2023-09-08T12:07:22;26.50;8.00
13198;DHT22;6664;52.514;13.440;2023-09-08T12:10:09;26.60;7.80
13198;DHT22;6664;52.514;13.440;2023-09-08T12:12:58;26.70;7.10
13198;DHT22;6664;52.514;13.440;2023-09-08T12:15:46;26.80;7.30
13198;DHT22;6664;52.514;13.440;2023-09-08T12:18:39;26.80;6.30
13198;DHT22;6664;52.514;13.440;2023-09-08T12:21:25;26.90;6.00
13198;DHT22;6664;52.514;13.440;2023-09-08T12:24:13;26.90;5.60
13198;DHT22;6664;52.514;13.440;2023-09-08T12:27:02;27.00;5.60
13198;DHT22;6664;52.514;13.440;2023-09-08T12:30:01;27.10;6.10
13198;DHT22;6664;52.514;13.440;2023-09-08T12:32:48;27.60;4.20
13198;DHT22;6664;52.514;13.440;2023-09-08T12:35:36;28.20;3.10
13198;DHT22;6664;52.514;13.440;2023-09-08T12:38:22;29.00;1.00
13198;DHT22;6664;52.514;13.440;2023-09-08T12:41:10;31.10;1.00
13198;DHT22;6664;52.514;13.440;2023-09-08T12:43:55;37.90;1.00
13198;DHT22;6664;52.514;13.440;2023-09-08T12:46:43;42.00;1.00
13198;DHT22;6664;52.514;13.440;2023-09-08T12:49:31;44.80;1.00
13198;DHT22;6664;52.514;13.440;2023-09-08T12:52:16;46.80;1.00
13198;DHT22;6664;52.514;13.440;2023-09-08T12:55:05;48.10;1.00
13198;DHT22;6664;52.514;13.440;2023-09-08T12:57:54;48.80;1.00
13198;DHT22;6664;52.514;13.440;2023-09-08T13:00:43;49.60;1.00
13198;DHT22;6664;52.514;13.440;2023-09-08T13:03:29;51.40;1.00
13198;DHT22;6664;52.514;13.440;2023-09-08T13:06:15;55.00;1.00
13198;DHT22;6664;52.514;13.440;2023-09-08T13:09:01;57.30;1.00
13198;DHT22;6664;52.514;13.440;2023-09-08T13:11:47;57.20;1.00
13198;DHT22;6664;52.514;13.440;2023-09-08T13:14:32;58.60;1.00
13198;DHT22;6664;52.514;13.440;2023-09-08T13:17:18;59.40;1.00
13198;DHT22;6664;52.514;13.440;2023-09-08T13:20:04;60.10;1.00
13198;DHT22;6664;52.514;13.440;2023-09-08T13:22:50;60.40;1.00
13198;DHT22;6664;52.514;13.440;2023-09-08T13:25:35;60.60;1.00
13198;DHT22;6664;52.514;13.440;2023-09-08T13:28:21;60.50;1.00
13198;DHT22;6664;52.514;13.440;2023-09-08T13:31:07;59.70;1.00
13198;DHT22;6664;52.514;13.440;2023-09-08T13:33:56;60.30;1.00
13198;DHT22;6664;52.514;13.440;2023-09-08T13:36:42;60.80;1.00
13198;DHT22;6664;52.514;13.440;2023-09-08T13:39:27;60.80;1.00
13198;DHT22;6664;52.514;13.440;2023-09-08T13:42:13;60.50;1.00
13198;DHT22;6664;52.514;13.440;2023-09-08T13:44:59;59.50;1.00
13198;DHT22;6664;52.514;13.440;2023-09-08T13:47:48;58.70;1.00
13198;DHT22;6664;52.514;13.440;2023-09-08T13:50:38;59.80;1.00
13198;DHT22;6664;52.514;13.440;2023-09-08T13:53:26;60.00;1.00
13198;DHT22;6664;52.514;13.440;2023-09-08T13:56:27;58.60;1.00
13198;DHT22;6664;52.514;13.440;2023-09-08T13:59:15;58.40;1.00
13198;DHT22;6664;52.514;13.440;2023-09-08T14:02:04;57.80;1.00
13198;DHT22;6664;52.514;13.440;2023-09-08T14:04:52;57.30;1.00
13198;DHT22;6664;52.514;13.440;2023-09-08T14:07:42;56.80;1.00
13198;DHT22;6664;52.514;13.440;2023-09-08T14:10:40;56.90;1.00
13198;DHT22;6664;52.514;13.440;2023-09-08T14:13:42;55.80;1.00
13198;DHT22;6664;52.514;13.440;2023-09-08T14:16:28;54.90;1.00
13198;DHT22;6664;52.514;13.440;2023-09-08T14:19:14;54.80;1.00
13198;DHT22;6664;52.514;13.440;2023-09-08T14:21:59;54.60;1.00
13198;DHT22;6664;52.514;13.440;2023-09-08T14:24:47;55.10;1.00
13198;DHT22;6664;52.514;13.440;2023-09-08T14:27:33;54.40;1.00
13198;DHT22;6664;52.514;13.440;2023-09-08T14:30:20;54.10;1.00
13198;DHT22;6664;52.514;13.440;2023-09-08T14:33:06;53.40;1.00
13198;DHT22;6664;52.514;13.440;2023-09-08T14:35:52;49.10;1.00
13198;DHT22;6664;52.514;13.440;2023-09-08T14:38:41;46.30;1.00
13198;DHT22;6664;52.514;13.440;2023-09-08T14:41:26;44.50;1.00
13198;DHT22;6664;52.514;13.440;2023-09-08T14:44:12;41.50;1.00
13198;DHT22;6664;52.514;13.440;2023-09-08T14:46:57;38.80;1.00
13198;DHT22;6664;52.514;13.440;2023-09-08T14:49:43;36.80;1.00
13198;DHT22;6664;52.514;13.440;2023-09-08T14:52:28;35.50;1.00
13198;DHT22;6664;52.514;13.440;2023-09-08T14:55:14;34.20;1.00
13198;DHT22;6664;52.514;13.440;2023-09-08T14:57:59;33.30;1.00
13198;DHT22;6664;52.514;13.440;2023-09-08T15:00:45;32.50;1.00
13198;DHT22;6664;52.514;13.440;2023-09-08T15:03:31;32.80;1.00
13198;DHT22;6664;52.514;13.440;2023-09-08T15:06:18;32.30;1.00
13198;DHT22;6664;52.514;13.440;2023-09-08T15:09:03;31.80;1.00
13198;DHT22;6664;52.514;13.440;2023-09-08T15:11:50;31.50;1.00
13198;DHT22;6664;52.514;13.440;2023-09-08T15:14:37;30.90;1.00
13198;DHT22;6664;52.514;13.440;2023-09-08T15:17:23;30.40;1.00
13198;DHT22;6664;52.514;13.440;2023-09-08T15:20:08;29.90;1.00
13198;DHT22;6664;52.514;13.440;2023-09-08T15:22:54;29.40;1.00
13198;DHT22;6664;52.514;13.440;2023-09-08T15:25:42;29.10;1.00
13198;DHT22;6664;52.514;13.440;2023-09-08T15:28:29;28.80;1.00
13198;DHT22;6664;52.514;13.440;2023-09-08T15:31:16;28.60;1.00
13198;DHT22;6664;52.514;13.440;2023-09-08T15:34:02;28.40;1.00
13198;DHT22;6664;52.514;13.440;2023-09-08T15:36:48;28.70;1.00
13198;DHT22;6664;52.514;13.440;2023-09-08T15:39:34;28.60;1.00
13198;DHT22;6664;52.514;13.440;2023-09-08T15:42:20;28.30;1.00
13198;DHT22;6664;52.514;13.440;2023-09-08T15:45:05;28.10;1.00
13198;DHT22;6664;52.514;13.440;2023-09-08T15:47:51;27.80;1.00
13198;DHT22;6664;52.514;13.440;2023-09-08T15:50:39;28.00;1.00
13198;DHT22;6664;52.514;13.440;2023-09-08T15:53:26;28.10;1.00
13198;DHT22;6664;52.514;13.440;2023-09-08T15:56:12;27.80;1.00
13198;DHT22;6664;52.514;13.440;2023-09-08T15:59:00;27.60;1.00
13198;DHT22;6664;52.514;13.440;2023-09-08T16:01:45;27.30;1.00
13198;DHT22;6664;52.514;13.440;2023-09-08T16:04:34;27.80;1.00
13198;DHT22;6664;52.514;13.440;2023-09-08T16:07:19;27.60;1.00
13198;DHT22;6664;52.514;13.440;2023-09-08T16:10:10;28.20;1.00
13198;DHT22;6664;52.514;13.440;2023-09-08T16:12:56;27.80;1.00
13198;DHT22;6664;52.514;13.440;2023-09-08T16:15:43;27.70;1.00
13198;DHT22;6664;52.514;13.440;2023-09-08T16:18:31;29.00;1.00
13198;DHT22;6664;52.514;13.440;2023-09-08T16:21:17;28.90;1.00
13198;DHT22;6664;52.514;13.440;2023-09-08T16:24:03;28.80;1.00
13198;DHT22;6664;52.514;13.440;2023-09-08T16:26:48;28.40;1.00
13198;DHT22;6664;52.514;13.440;2023-09-08T16:29:34;28.00;1.00
13198;DHT22;6664;52.514;13.440;2023-09-08T16:32:20;27.80;1.00
13198;DHT22;6664;52.514;13.440;2023-09-08T16:35:07;27.40;1.00
13198;DHT22;6664;52.514;13.440;2023-09-08T16:37:53;27.00;1.00
13198;DHT22;6664;52.514;13.440;2023-09-08T16:40:39;26.70;1.00
13198;DHT22;6664;52.514;13.440;2023-09-08T16:43:25;26.40;1.00
13198;DHT22;6664;52.514;13.440;2023-09-08T16:46:10;26.30;1.00
13198;DHT22;6664;52.514;13.440;2023-09-08T16:48:58;26.40;1.00
13198;DHT22;6664;52.514;13.440;2023-09-08T16:51:44;26.40;1.00
13198;DHT22;6664;52.514;13.440;2023-09-08T16:54:32;25.90;1.00
13198;DHT22;6664;52.514;13.440;2023-09-08T16:57:18;25.50;1.00
13198;DHT22;6664;52.514;13.440;2023-09-08T17:00:06;25.20;1.00
13198;DHT22;6664;52.514;13.440;2023-09-08T17:02:52;24.90;1.00
13198;DHT22;6664;52.514;13.440;2023-09-08T17:05:38;24.60;1.00
13198;DHT22;6664;52.514;13.440;2023-09-08T17:08:28;24.40;1.00
13198;DHT22;6664;52.514;13.440;2023-09-08T17:11:16;24.10;1.00
13198;DHT22;6664;52.514;13.440;2023-09-08T17:14:04;23.90;1.10
13198;DHT22;6664;52.514;13.440;2023-09-08T17:16:50;23.60;1.70
13198;DHT22;6664;52.514;13.440;2023-09-08T17:19:35;23.50;2.50
13198;DHT22;6664;52.514;13.440;2023-09-08T17:22:23;23.20;3.30
13198;DHT22;6664;52.514;13.440;2023-09-08T17:25:10;23.10;3.70
13198;DHT22;6664;52.514;13.440;2023-09-08T17:27:56;22.80;4.00
13198;DHT22;6664;52.514;13.440;2023-09-08T17:30:41;22.60;5.30
13198;DHT22;6664;52.514;13.440;2023-09-08T17:33:27;22.40;5.80
13198;DHT22;6664;52.514;13.440;2023-09-08T17:36:12;22.30;6.30
13198;DHT22;6664;52.514;13.440;2023-09-08T17:38:58;22.10;7.40
13198;DHT22;6664;52.514;13.440;2023-09-08T17:41:44;22.10;7.40